sensor_id;sensor_type;location;lat;lon;timestamp;temperature;humidity
38223;DHT22;24024;51.186;6.458;2023-12-20T00:01:35;11.10;75.50
38223;DHT22;24024;51.186;6.458;2023-12-20T00:04:06;11.10;75.30
38223;DHT22;24024;51.186;6.458;2023-12-20T00:06:33;11.00;75.00
38223;DHT22;24024;51.186;6.458;2023-12-20T00:09:00;11.00;75.00
38223;DHT22;24024;51.186;6.458;2023-12-20T00:11:27;10.80;75.10
38223;DHT22;24024;51.186;6.458;2023-12-20T00:13:54;10.80;75.20
38223;DHT22;24024;51.186;6.458;2023-12-20T00:16:21;10.80;75.10
38223;DHT22;24024;51.186;6.458;2023-12-20T00:18:47;10.90;75.00
38223;DHT22;24024;51.186;6.458;2023-12-20T00:21:14;10.90;74.80
38223;DHT22;24024;51.186;6.458;2023-12-20T00:23:41;10.90;74.60
38223;DHT22;24024;51.186;6.458;2023-12-20T00:26:08;10.80;74.60
38223;DHT22;24024;51.186;6.458;2023-12-20T00:28:34;10.80;74.70
38223;DHT22;24024;51.186;6.458;2023-12-20T00:31:04;10.80;74.70
38223;DHT22;24024;51.186;6.458;2023-12-20T00:33:33;10.80;74.80
38223;DHT22;24024;51.186;6.458;2023-12-20T00:36:03;10.80;74.90
38223;DHT22;24024;51.186;6.458;2023-12-20T00:38:30;10.80;75.10
38223;DHT22;24024;51.186;6.458;2023-12-20T00:40:59;10.80;75.40
38223;DHT22;24024;51.186;6.458;2023-12-20T00:43:28;10.50;76.30
38223;DHT22;24024;51.186;6.458;2023-12-20T00:45:55;10.50;76.40
38223;DHT22;24024;51.186;6.458;2023-12-20T00:48:29;10.50;76.50
38223;DHT22;24024;51.186;6.458;2023-12-20T00:50:57;10.30;76.50
38223;DHT22;24024;51.186;6.458;2023-12-20T00:53:24;10.40;76.80
38223;DHT22;24024;51.186;6.458;2023-12-20T00:55:51;10.30;76.40
38223;DHT22;24024;51.186;6.458;2023-12-20T00:58:22;10.10;76.50
38223;DHT22;24024;51.186;6.458;2023-12-20T01:00:51;10.10;76.40
38223;DHT22;24024;51.186;6.458;2023-12-20T01:03:19;10.20;76.30
38223;DHT22;24024;51.186;6.458;2023-12-20T01:05:46;10.10;76.30
38223;DHT22;24024;51.186;6.458;2023-12-20T01:08:12;10.10;76.10
38223;DHT22;24024;51.186;6.458;2023-12-20T01:10:44;10.20;76.00
38223;DHT22;24024;51.186;6.458;2023-12-20T01:13:13;9.90;75.90
38223;DHT22;24024;51.186;6.458;2023-12-20T01:15:40;9.90;76.30
38223;DHT22;24024;51.186;6.458;2023-12-20T01:18:09;9.80;76.30
38223;DHT22;24024;51.186;6.458;2023-12-20T01:20:38;9.80;76.50
38223;DHT22;24024;51.186;6.458;2023-12-20T01:23:06;9.70;76.30
38223;DHT22;24024;51.186;6.458;2023-12-20T01:25:33;9.70;76.40
38223;DHT22;24024;51.186;6.458;2023-12-20T01:28:00;9.70;75.90
38223;DHT22;24024;51.186;6.458;2023-12-20T01:30:31;9.80;75.50
38223;DHT22;24024;51.186;6.458;2023-12-20T01:33:00;9.80;75.10
38223;DHT22;24024;51.186;6.458;2023-12-20T01:35:28;10.00;74.90
38223;DHT22;24024;51.186;6.458;2023-12-20T01:37:57;9.90;74.60
38223;DHT22;24024;51.186;6.458;2023-12-20T01:40:26;9.90;74.30
38223;DHT22;24024;51.186;6.458;2023-12-20T01:43:08;9.90;74.00
38223;DHT22;24024;51.186;6.458;2023-12-20T01:45:36;9.90;74.10
38223;DHT22;24024;51.186;6.458;2023-12-20T01:48:05;9.80;74.10
38223;DHT22;24024;51.186;6.458;2023-12-20T01:50:33;9.80;74.10
38223;DHT22;24024;51.186;6.458;2023-12-20T01:53:02;9.80;73.80
38223;DHT22;24024;51.186;6.458;2023-12-20T01:55:32;9.90;73.90
38223;DHT22;24024;51.186;6.458;2023-12-20T01:58:03;9.80;73.70
38223;DHT22;24024;51.186;6.458;2023-12-20T02:00:33;9.80;73.60
38223;DHT22;24024;51.186;6.458;2023-12-20T02:03:03;9.90;73.50
38223;DHT22;24024;51.186;6.458;2023-12-20T02:05:31;9.90;73.40
38223;DHT22;24024;51.186;6.458;2023-12-20T02:07:58;9.90;73.20
38223;DHT22;24024;51.186;6.458;2023-12-20T02:10:30;9.90;73.10
38223;DHT22;24024;51.186;6.458;2023-12-20T02:12:57;9.90;73.20
38223;DHT22;24024;51.186;6.458;2023-12-20T02:15:25;10.10;73.10
38223;DHT22;24024;51.186;6.458;2023-12-20T02:17:54;10.10;72.80
38223;DHT22;24024;51.186;6.458;2023-12-20T02:20:24;10.20;72.50
38223;DHT22;24024;51.186;6.458;2023-12-20T02:22:54;10.30;72.50
38223;DHT22;24024;51.186;6.458;2023-12-20T02:25:21;10.10;72.20
38223;DHT22;24024;51.186;6.458;2023-12-20T02:27:48;10.10;72.20
38223;DHT22;24024;51.186;6.458;2023-12-20T02:30:18;10.00;72.20
38223;DHT22;24024;51.186;6.458;2023-12-20T02:32:49;10.10;72.30
38223;DHT22;24024;51.186;6.458;2023-12-20T02:35:16;10.10;72.10
38223;DHT22;24024;51.186;6.458;2023-12-20T02:37:46;10.10;71.80
38223;DHT22;24024;51.186;6.458;2023-12-20T02:40:17;10.00;72.00
38223;DHT22;24024;51.186;6.458;2023-12-20T02:42:44;9.80;72.40
38223;DHT22;24024;51.186;6.458;2023-12-20T02:45:13;9.80;72.60
38223;DHT22;24024;51.186;6.458;2023-12-20T02:47:43;9.80;72.60
38223;DHT22;24024;51.186;6.458;2023-12-20T02:50:10;9.90;72.40
38223;DHT22;24024;51.186;6.458;2023-12-20T02:52:37;9.90;72.20
38223;DHT22;24024;51.186;6.458;2023-12-20T02:55:07;9.80;72.30
38223;DHT22;24024;51.186;6.458;2023-12-20T02:57:34;9.80;72.30
38223;DHT22;24024;51.186;6.458;2023-12-20T03:00:03;9.80;72.40
38223;DHT22;24024;51.186;6.458;2023-12-20T03:02:30;9.80;72.30
38223;DHT22;24024;51.186;6.458;2023-12-20T03:04:57;9.80;72.40
38223;DHT22;24024;51.186;6.458;2023-12-20T03:07:29;9.80;72.40
38223;DHT22;24024;51.186;6.458;2023-12-20T03:09:56;9.80;72.20
38223;DHT22;24024;51.186;6.458;2023-12-20T03:12:43;9.80;72.10
38223;DHT22;24024;51.186;6.458;2023-12-20T03:15:10;9.60;72.50
38223;DHT22;24024;51.186;6.458;2023-12-20T03:17:37;9.60;72.70
38223;DHT22;24024;51.186;6.458;2023-12-20T03:20:10;9.60;72.40
38223;DHT22;24024;51.186;6.458;2023-12-20T03:22:37;9.70;72.50
38223;DHT22;24024;51.186;6.458;2023-12-20T03:25:04;9.60;72.60
38223;DHT22;24024;51.186;6.458;2023-12-20T03:27:33;9.60;72.60
38223;DHT22;24024;51.186;6.458;2023-12-20T03:30:02;9.60;72.80
38223;DHT22;24024;51.186;6.458;2023-12-20T03:32:34;9.60;72.50
38223;DHT22;24024;51.186;6.458;2023-12-20T03:35:01;9.70;72.50
38223;DHT22;24024;51.186;6.458;2023-12-20T03:37:28;9.60;72.50
38223;DHT22;24024;51.186;6.458;2023-12-20T03:40:02;9.60;72.70
38223;DHT22;24024;51.186;6.458;2023-12-20T03:42:29;9.50;72.80
38223;DHT22;24024;51.186;6.458;2023-12-20T03:44:56;9.50;73.00
38223;DHT22;24024;51.186;6.458;2023-12-20T03:47:23;9.40;73.10
38223;DHT22;24024;51.186;6.458;2023-12-20T03:49:54;9.50;73.00
38223;DHT22;24024;51.186;6.458;2023-12-20T03:52:21;9.50;72.90
38223;DHT22;24024;51.186;6.458;2023-12-20T03:54:51;9.50;72.90
38223;DHT22;24024;51.186;6.458;2023-12-20T03:57:18;9.50;72.80
38223;DHT22;24024;51.186;6.458;2023-12-20T03:59:44;9.40;73.00
38223;DHT22;24024;51.186;6.458;2023-12-20T04:02:12;9.30;73.10
38223;DHT22;24024;51.186;6.458;2023-12-20T04:04:39;9.40;73.10
38223;DHT22;24024;51.186;6.458;2023-12-20T04:07:06;9.40;73.10
38223;DHT22;24024;51.186;6.458;2023-12-20T04:09:33;9.50;72.80
38223;DHT22;24024;51.186;6.458;2023-12-20T04:12:00;9.50;72.60
38223;DHT22;24024;51.186;6.458;2023-12-20T04:14:29;9.50;72.50
38223;DHT22;24024;51.186;6.458;2023-12-20T04:16:58;9.50;72.30
38223;DHT22;24024;51.186;6.458;2023-12-20T04:19:25;9.50;72.40
38223;DHT22;24024;51.186;6.458;2023-12-20T04:21:52;9.50;72.50
38223;DHT22;24024;51.186;6.458;2023-12-20T04:24:21;9.50;72.40
38223;DHT22;24024;51.186;6.458;2023-12-20T04:26:54;9.50;72.10
38223;DHT22;24024;51.186;6.458;2023-12-20T04:29:21;9.60;71.90
38223;DHT22;24024;51.186;6.458;2023-12-20T04:31:48;9.60;71.70
38223;DHT22;24024;51.186;6.458;2023-12-20T04:34:16;9.60;71.50
38223;DHT22;24024;51.186;6.458;2023-12-20T04:36:44;9.70;71.30
38223;DHT22;24024;51.186;6.458;2023-12-20T04:39:12;9.60;71.40
38223;DHT22;24024;51.186;6.458;2023-12-20T04:41:41;9.60;71.50
38223;DHT22;24024;51.186;6.458;2023-12-20T04:44:10;9.60;71.60
38223;DHT22;24024;51.186;6.458;2023-12-20T04:46:37;9.60;71.70
38223;DHT22;24024;51.186;6.458;2023-12-20T04:49:04;9.60;71.70
38223;DHT22;24024;51.186;6.458;2023-12-20T04:51:33;9.60;71.50
38223;DHT22;24024;51.186;6.458;2023-12-20T04:54:01;9.60;71.40
38223;DHT22;24024;51.186;6.458;2023-12-20T04:56:28;9.50;71.50
38223;DHT22;24024;51.186;6.458;2023-12-20T04:58:55;9.50;71.40
38223;DHT22;24024;51.186;6.458;2023-12-20T05:01:21;9.50;71.60
38223;DHT22;24024;51.186;6.458;2023-12-20T05:03:51;9.40;71.60
38223;DHT22;24024;51.186;6.458;2023-12-20T05:06:18;9.40;71.80
38223;DHT22;24024;51.186;6.458;2023-12-20T05:08:45;9.30;72.00
38223;DHT22;24024;51.186;6.458;2023-12-20T05:11:14;9.30;72.10
38223;DHT22;24024;51.186;6.458;2023-12-20T05:13:42;9.30;72.20
38223;DHT22;24024;51.186;6.458;2023-12-20T05:16:16;9.30;72.40
38223;DHT22;24024;51.186;6.458;2023-12-20T05:18:46;9.30;72.70
38223;DHT22;24024;51.186;6.458;2023-12-20T05:21:15;9.20;72.80
38223;DHT22;24024;51.186;6.458;2023-12-20T05:23:42;9.20;72.70
38223;DHT22;24024;51.186;6.458;2023-12-20T05:26:09;9.20;72.90
38223;DHT22;24024;51.186;6.458;2023-12-20T05:28:36;9.10;73.00
38223;DHT22;24024;51.186;6.458;2023-12-20T05:31:10;9.10;73.10
38223;DHT22;24024;51.186;6.458;2023-12-20T05:33:39;9.10;73.30
38223;DHT22;24024;51.186;6.458;2023-12-20T05:36:09;9.10;73.30
38223;DHT22;24024;51.186;6.458;2023-12-20T05:38:42;9.20;73.20
38223;DHT22;24024;51.186;6.458;2023-12-20T05:41:09;9.30;73.10
38223;DHT22;24024;51.186;6.458;2023-12-20T05:43:41;9.30;72.90
38223;DHT22;24024;51.186;6.458;2023-12-20T05:46:12;9.30;72.90
38223;DHT22;24024;51.186;6.458;2023-12-20T05:48:39;9.30;73.10
38223;DHT22;24024;51.186;6.458;2023-12-20T05:51:06;9.20;73.30
38223;DHT22;24024;51.186;6.458;2023-12-20T05:53:33;9.20;73.40
38223;DHT22;24024;51.186;6.458;2023-12-20T05:56:02;9.20;73.40
38223;DHT22;24024;51.186;6.458;2023-12-20T05:58:35;9.20;73.40
38223;DHT22;24024;51.186;6.458;2023-12-20T06:01:05;9.20;73.50
38223;DHT22;24024;51.186;6.458;2023-12-20T06:03:35;9.20;73.70
38223;DHT22;24024;51.186;6.458;2023-12-20T06:06:06;9.30;73.50
38223;DHT22;24024;51.186;6.458;2023-12-20T06:08:42;9.30;73.40
38223;DHT22;24024;51.186;6.458;2023-12-20T06:11:12;9.30;73.30
38223;DHT22;24024;51.186;6.458;2023-12-20T06:13:44;9.30;73.20
38223;DHT22;24024;51.186;6.458;2023-12-20T06:16:12;9.20;73.40
38223;DHT22;24024;51.186;6.458;2023-12-20T06:18:42;9.30;73.60
38223;DHT22;24024;51.186;6.458;2023-12-20T06:21:11;9.30;73.40
38223;DHT22;24024;51.186;6.458;2023-12-20T06:23:40;9.30;73.30
38223;DHT22;24024;51.186;6.458;2023-12-20T06:26:06;9.20;73.40
38223;DHT22;24024;51.186;6.458;2023-12-20T06:28:34;9.30;73.50
38223;DHT22;24024;51.186;6.458;2023-12-20T06:31:00;9.30;73.60
38223;DHT22;24024;51.186;6.458;2023-12-20T06:33:30;9.30;73.50
38223;DHT22;24024;51.186;6.458;2023-12-20T06:35:58;9.30;73.40
38223;DHT22;24024;51.186;6.458;2023-12-20T06:38:27;9.20;73.40
38223;DHT22;24024;51.186;6.458;2023-12-20T06:40:54;9.10;73.70
38223;DHT22;24024;51.186;6.458;2023-12-20T06:43:21;9.10;73.70
38223;DHT22;24024;51.186;6.458;2023-12-20T06:46:09;9.10;73.80
38223;DHT22;24024;51.186;6.458;2023-12-20T06:48:38;9.00;73.90
38223;DHT22;24024;51.186;6.458;2023-12-20T06:51:06;9.10;74.10
38223;DHT22;24024;51.186;6.458;2023-12-20T06:53:32;9.20;73.90
38223;DHT22;24024;51.186;6.458;2023-12-20T06:55:59;9.30;73.50
38223;DHT22;24024;51.186;6.458;2023-12-20T06:58:26;9.20;73.40
38223;DHT22;24024;51.186;6.458;2023-12-20T07:00:53;9.30;73.40
38223;DHT22;24024;51.186;6.458;2023-12-20T07:03:20;9.30;73.10
38223;DHT22;24024;51.186;6.458;2023-12-20T07:05:47;9.30;73.20
38223;DHT22;24024;51.186;6.458;2023-12-20T07:08:14;9.20;73.30
38223;DHT22;24024;51.186;6.458;2023-12-20T07:10:42;9.20;73.40
38223;DHT22;24024;51.186;6.458;2023-12-20T07:13:09;9.30;73.40
38223;DHT22;24024;51.186;6.458;2023-12-20T07:15:36;9.30;73.30
38223;DHT22;24024;51.186;6.458;2023-12-20T07:18:04;9.20;73.40
38223;DHT22;24024;51.186;6.458;2023-12-20T07:20:34;9.30;73.20
38223;DHT22;24024;51.186;6.458;2023-12-20T07:23:03;9.20;73.00
38223;DHT22;24024;51.186;6.458;2023-12-20T07:25:30;9.30;73.00
38223;DHT22;24024;51.186;6.458;2023-12-20T07:27:59;9.40;72.90
38223;DHT22;24024;51.186;6.458;2023-12-20T07:30:26;9.40;72.50
38223;DHT22;24024;51.186;6.458;2023-12-20T07:32:53;9.20;72.80
38223;DHT22;24024;51.186;6.458;2023-12-20T07:35:21;9.20;72.90
38223;DHT22;24024;51.186;6.458;2023-12-20T07:37:47;9.20;72.90
38223;DHT22;24024;51.186;6.458;2023-12-20T07:40:17;9.10;72.90
38223;DHT22;24024;51.186;6.458;2023-12-20T07:42:46;9.10;73.00
38223;DHT22;24024;51.186;6.458;2023-12-20T07:45:13;9.10;73.30
38223;DHT22;24024;51.186;6.458;2023-12-20T07:47:42;9.20;73.00
38223;DHT22;24024;51.186;6.458;2023-12-20T07:50:10;9.30;72.70
38223;DHT22;24024;51.186;6.458;2023-12-20T07:52:39;9.30;72.50
38223;DHT22;24024;51.186;6.458;2023-12-20T07:55:07;9.20;72.30
38223;DHT22;24024;51.186;6.458;2023-12-20T07:57:34;9.00;72.80
38223;DHT22;24024;51.186;6.458;2023-12-20T08:00:03;8.90;73.20
38223;DHT22;24024;51.186;6.458;2023-12-20T08:02:30;9.00;73.20
38223;DHT22;24024;51.186;6.458;2023-12-20T08:04:57;8.90;73.20
38223;DHT22;24024;51.186;6.458;2023-12-20T08:07:24;9.00;73.10
38223;DHT22;24024;51.186;6.458;2023-12-20T08:09:51;9.10;72.80
38223;DHT22;24024;51.186;6.458;2023-12-20T08:12:18;9.00;72.90
38223;DHT22;24024;51.186;6.458;2023-12-20T08:14:47;9.00;72.90
38223;DHT22;24024;51.186;6.458;2023-12-20T08:17:14;9.10;72.60
38223;DHT22;24024;51.186;6.458;2023-12-20T08:19:42;9.20;72.50
38223;DHT22;24024;51.186;6.458;2023-12-20T08:22:14;9.10;72.50
38223;DHT22;24024;51.186;6.458;2023-12-20T08:24:41;9.10;72.50
38223;DHT22;24024;51.186;6.458;2023-12-20T08:27:08;8.90;72.70
38223;DHT22;24024;51.186;6.458;2023-12-20T08:29:36;8.90;72.90
38223;DHT22;24024;51.186;6.458;2023-12-20T08:32:03;9.00;73.00
38223;DHT22;24024;51.186;6.458;2023-12-20T08:34:33;9.00;72.90
38223;DHT22;24024;51.186;6.458;2023-12-20T08:37:03;9.10;72.80
38223;DHT22;24024;51.186;6.458;2023-12-20T08:39:30;9.00;72.80
38223;DHT22;24024;51.186;6.458;2023-12-20T08:42:00;8.90;73.00
38223;DHT22;24024;51.186;6.458;2023-12-20T08:44:26;9.00;73.00
38223;DHT22;24024;51.186;6.458;2023-12-20T08:46:55;9.00;72.80
38223;DHT22;24024;51.186;6.458;2023-12-20T08:49:25;9.00;72.80
38223;DHT22;24024;51.186;6.458;2023-12-20T08:51:52;9.00;72.90
38223;DHT22;24024;51.186;6.458;2023-12-20T08:54:19;9.00;73.00
38223;DHT22;24024;51.186;6.458;2023-12-20T08:56:46;8.90;73.00
38223;DHT22;24024;51.186;6.458;2023-12-20T08:59:14;8.90;73.10
38223;DHT22;24024;51.186;6.458;2023-12-20T09:01:42;8.90;73.10
38223;DHT22;24024;51.186;6.458;2023-12-20T09:04:12;8.90;73.20
38223;DHT22;24024;51.186;6.458;2023-12-20T09:06:39;9.00;73.00
38223;DHT22;24024;51.186;6.458;2023-12-20T09:09:06;9.00;73.00
38223;DHT22;24024;51.186;6.458;2023-12-20T09:11:35;8.90;73.10
38223;DHT22;24024;51.186;6.458;2023-12-20T09:14:03;9.10;72.90
38223;DHT22;24024;51.186;6.458;2023-12-20T09:16:30;9.10;72.80
38223;DHT22;24024;51.186;6.458;2023-12-20T09:19:01;9.10;72.60
38223;DHT22;24024;51.186;6.458;2023-12-20T09:21:28;9.10;72.50
38223;DHT22;24024;51.186;6.458;2023-12-20T09:23:55;9.20;72.50
38223;DHT22;24024;51.186;6.458;2023-12-20T09:26:22;9.10;72.40
38223;DHT22;24024;51.186;6.458;2023-12-20T09:28:49;9.00;72.60
38223;DHT22;24024;51.186;6.458;2023-12-20T09:31:16;8.90;72.90
38223;DHT22;24024;51.186;6.458;2023-12-20T09:33:43;9.00;73.00
38223;DHT22;24024;51.186;6.458;2023-12-20T09:36:10;9.00;72.80
38223;DHT22;24024;51.186;6.458;2023-12-20T09:38:37;9.10;72.60
38223;DHT22;24024;51.186;6.458;2023-12-20T09:41:03;9.00;72.40
38223;DHT22;24024;51.186;6.458;2023-12-20T09:43:31;9.00;72.70
38223;DHT22;24024;51.186;6.458;2023-12-20T09:46:05;9.10;72.80
38223;DHT22;24024;51.186;6.458;2023-12-20T09:48:39;9.10;72.50
38223;DHT22;24024;51.186;6.458;2023-12-20T09:51:07;9.20;72.30
38223;DHT22;24024;51.186;6.458;2023-12-20T09:53:36;9.20;72.40
38223;DHT22;24024;51.186;6.458;2023-12-20T09:56:03;9.20;72.30
38223;DHT22;24024;51.186;6.458;2023-12-20T09:58:32;9.30;72.10
38223;DHT22;24024;51.186;6.458;2023-12-20T10:01:00;9.30;72.10
38223;DHT22;24024;51.186;6.458;2023-12-20T10:03:27;9.40;71.90
38223;DHT22;24024;51.186;6.458;2023-12-20T10:05:56;9.30;72.10
38223;DHT22;24024;51.186;6.458;2023-12-20T10:08:24;9.30;72.30
38223;DHT22;24024;51.186;6.458;2023-12-20T10:10:54;9.40;72.10
38223;DHT22;24024;51.186;6.458;2023-12-20T10:13:22;9.40;72.00
38223;DHT22;24024;51.186;6.458;2023-12-20T10:15:49;9.40;72.00
38223;DHT22;24024;51.186;6.458;2023-12-20T10:18:16;9.50;72.00
38223;DHT22;24024;51.186;6.458;2023-12-20T10:20:47;9.50;71.90
38223;DHT22;24024;51.186;6.458;2023-12-20T10:23:15;9.60;71.80
38223;DHT22;24024;51.186;6.458;2023-12-20T10:25:42;9.40;71.60
38223;DHT22;24024;51.186;6.458;2023-12-20T10:28:12;9.50;71.60
38223;DHT22;24024;51.186;6.458;2023-12-20T10:30:41;9.50;71.40
38223;DHT22;24024;51.186;6.458;2023-12-20T10:33:11;9.50;71.60
38223;DHT22;24024;51.186;6.458;2023-12-20T10:35:39;9.50;71.70
38223;DHT22;24024;51.186;6.458;2023-12-20T10:38:11;9.50;71.60
38223;DHT22;24024;51.186;6.458;2023-12-20T10:40:40;9.50;71.50
38223;DHT22;24024;51.186;6.458;2023-12-20T10:43:10;9.60;71.60
38223;DHT22;24024;51.186;6.458;2023-12-20T10:45:37;9.50;71.60
38223;DHT22;24024;51.186;6.458;2023-12-20T10:48:04;9.50;71.60
38223;DHT22;24024;51.186;6.458;2023-12-20T10:50:34;9.50;71.60
38223;DHT22;24024;51.186;6.458;2023-12-20T10:53:02;9.60;71.60
38223;DHT22;24024;51.186;6.458;2023-12-20T10:55:34;9.60;71.50
38223;DHT22;24024;51.186;6.458;2023-12-20T10:58:07;9.70;71.40
38223;DHT22;24024;51.186;6.458;2023-12-20T11:00:39;9.60;71.30
38223;DHT22;24024;51.186;6.458;2023-12-20T11:03:10;9.60;71.30
38223;DHT22;24024;51.186;6.458;2023-12-20T11:05:54;9.60;71.40
38223;DHT22;24024;51.186;6.458;2023-12-20T11:08:33;9.60;71.40
38223;DHT22;24024;51.186;6.458;2023-12-20T11:14:06;9.50;71.50
38223;DHT22;24024;51.186;6.458;2023-12-20T11:16:41;9.60;71.70
38223;DHT22;24024;51.186;6.458;2023-12-20T11:19:20;9.50;71.60
38223;DHT22;24024;51.186;6.458;2023-12-20T11:21:50;9.60;71.50
38223;DHT22;24024;51.186;6.458;2023-12-20T11:24:21;9.60;71.50
38223;DHT22;24024;51.186;6.458;2023-12-20T11:26:48;9.50;71.60
38223;DHT22;24024;51.186;6.458;2023-12-20T11:29:36;9.50;71.80
38223;DHT22;24024;51.186;6.458;2023-12-20T11:32:04;9.60;71.70
38223;DHT22;24024;51.186;6.458;2023-12-20T11:34:54;9.70;71.50
38223;DHT22;24024;51.186;6.458;2023-12-20T11:37:25;9.70;71.40
38223;DHT22;24024;51.186;6.458;2023-12-20T11:39:56;9.70;71.50
38223;DHT22;24024;51.186;6.458;2023-12-20T11:42:25;9.60;71.60
38223;DHT22;24024;51.186;6.458;2023-12-20T11:44:52;9.70;71.60
38223;DHT22;24024;51.186;6.458;2023-12-20T11:47:22;9.70;71.70
38223;DHT22;24024;51.186;6.458;2023-12-20T11:49:49;9.80;71.60
38223;DHT22;24024;51.186;6.458;2023-12-20T11:52:16;9.80;71.60
38223;DHT22;24024;51.186;6.458;2023-12-20T11:54:43;9.60;71.70
38223;DHT22;24024;51.186;6.458;2023-12-20T11:57:10;9.70;71.80
38223;DHT22;24024;51.186;6.458;2023-12-20T11:59:36;9.70;71.70
38223;DHT22;24024;51.186;6.458;2023-12-20T12:02:03;9.80;71.70
38223;DHT22;24024;51.186;6.458;2023-12-20T12:04:34;9.90;71.60
38223;DHT22;24024;51.186;6.458;2023-12-20T12:07:01;9.80;71.60
38223;DHT22;24024;51.186;6.458;2023-12-20T12:09:28;9.70;72.00
38223;DHT22;24024;51.186;6.458;2023-12-20T12:11:54;9.80;72.20
38223;DHT22;24024;51.186;6.458;2023-12-20T12:14:24;9.80;72.40
38223;DHT22;24024;51.186;6.458;2023-12-20T12:16:51;9.80;72.40
38223;DHT22;24024;51.186;6.458;2023-12-20T12:19:23;9.80;72.40
38223;DHT22;24024;51.186;6.458;2023-12-20T12:22:08;9.90;72.30
38223;DHT22;24024;51.186;6.458;2023-12-20T12:24:45;9.80;72.30
38223;DHT22;24024;51.186;6.458;2023-12-20T12:27:13;9.80;72.30
38223;DHT22;24024;51.186;6.458;2023-12-20T12:29:40;9.80;72.60
38223;DHT22;24024;51.186;6.458;2023-12-20T12:32:08;9.90;72.50
38223;DHT22;24024;51.186;6.458;2023-12-20T12:34:36;9.80;72.60
38223;DHT22;24024;51.186;6.458;2023-12-20T12:37:06;9.90;72.60
38223;DHT22;24024;51.186;6.458;2023-12-20T12:39:36;9.80;72.60
38223;DHT22;24024;51.186;6.458;2023-12-20T12:42:06;9.70;72.70
38223;DHT22;24024;51.186;6.458;2023-12-20T12:44:33;9.60;73.00
38223;DHT22;24024;51.186;6.458;2023-12-20T12:47:00;9.70;73.10
38223;DHT22;24024;51.186;6.458;2023-12-20T12:49:29;9.70;73.10
38223;DHT22;24024;51.186;6.458;2023-12-20T12:51:55;9.70;73.50
38223;DHT22;24024;51.186;6.458;2023-12-20T12:54:24;9.70;73.70
38223;DHT22;24024;51.186;6.458;2023-12-20T12:56:55;9.70;73.80
38223;DHT22;24024;51.186;6.458;2023-12-20T12:59:22;9.80;73.90
38223;DHT22;24024;51.186;6.458;2023-12-20T13:01:49;9.80;73.80
38223;DHT22;24024;51.186;6.458;2023-12-20T13:04:16;9.90;73.80
38223;DHT22;24024;51.186;6.458;2023-12-20T13:06:42;9.80;74.00
38223;DHT22;24024;51.186;6.458;2023-12-20T13:09:12;9.90;74.00
38223;DHT22;24024;51.186;6.458;2023-12-20T13:11:38;9.90;73.90
38223;DHT22;24024;51.186;6.458;2023-12-20T13:14:07;9.90;73.90
38223;DHT22;24024;51.186;6.458;2023-12-20T13:16:39;10.00;73.80
38223;DHT22;24024;51.186;6.458;2023-12-20T13:19:06;10.00;73.70
38223;DHT22;24024;51.186;6.458;2023-12-20T13:21:33;9.90;73.60
38223;DHT22;24024;51.186;6.458;2023-12-20T13:24:00;9.90;73.80
38223;DHT22;24024;51.186;6.458;2023-12-20T13:26:27;10.00;73.60
38223;DHT22;24024;51.186;6.458;2023-12-20T13:28:56;10.00;73.50
38223;DHT22;24024;51.186;6.458;2023-12-20T13:31:23;10.10;73.50
38223;DHT22;24024;51.186;6.458;2023-12-20T13:33:50;10.00;73.80
38223;DHT22;24024;51.186;6.458;2023-12-20T13:36:21;9.90;74.00
38223;DHT22;24024;51.186;6.458;2023-12-20T13:38:53;9.70;74.50
38223;DHT22;24024;51.186;6.458;2023-12-20T13:41:20;9.80;74.70
38223;DHT22;24024;51.186;6.458;2023-12-20T13:43:50;9.70;74.80
38223;DHT22;24024;51.186;6.458;2023-12-20T13:46:17;9.70;75.10
38223;DHT22;24024;51.186;6.458;2023-12-20T13:48:44;9.80;74.90
38223;DHT22;24024;51.186;6.458;2023-12-20T13:51:13;9.80;74.80
38223;DHT22;24024;51.186;6.458;2023-12-20T13:53:42;9.90;74.80
38223;DHT22;24024;51.186;6.458;2023-12-20T13:56:08;9.80;74.70
38223;DHT22;24024;51.186;6.458;2023-12-20T13:58:40;9.90;74.60
38223;DHT22;24024;51.186;6.458;2023-12-20T14:01:09;9.80;74.70
38223;DHT22;24024;51.186;6.458;2023-12-20T14:03:41;9.90;74.80
38223;DHT22;24024;51.186;6.458;2023-12-20T14:06:08;10.00;74.60
38223;DHT22;24024;51.186;6.458;2023-12-20T14:08:37;10.00;74.40
38223;DHT22;24024;51.186;6.458;2023-12-20T14:11:04;9.90;74.70
38223;DHT22;24024;51.186;6.458;2023-12-20T14:13:33;9.80;74.90
38223;DHT22;24024;51.186;6.458;2023-12-20T14:15:59;9.90;74.80
38223;DHT22;24024;51.186;6.458;2023-12-20T14:18:27;10.00;74.70
38223;DHT22;24024;51.186;6.458;2023-12-20T14:20:56;10.00;74.50
38223;DHT22;24024;51.186;6.458;2023-12-20T14:23:23;9.90;74.70
38223;DHT22;24024;51.186;6.458;2023-12-20T14:25:50;10.00;74.70
38223;DHT22;24024;51.186;6.458;2023-12-20T14:28:19;10.00;74.50
38223;DHT22;24024;51.186;6.458;2023-12-20T14:30:46;10.00;74.40
38223;DHT22;24024;51.186;6.458;2023-12-20T14:33:13;10.10;74.30
38223;DHT22;24024;51.186;6.458;2023-12-20T14:35:40;10.20;74.30
38223;DHT22;24024;51.186;6.458;2023-12-20T14:38:11;10.20;74.20
38223;DHT22;24024;51.186;6.458;2023-12-20T14:40:41;10.10;74.30
38223;DHT22;24024;51.186;6.458;2023-12-20T14:43:08;10.10;74.20
38223;DHT22;24024;51.186;6.458;2023-12-20T14:45:35;10.20;74.10
38223;DHT22;24024;51.186;6.458;2023-12-20T14:48:01;10.30;73.90
38223;DHT22;24024;51.186;6.458;2023-12-20T14:50:28;10.30;73.80
38223;DHT22;24024;51.186;6.458;2023-12-20T14:52:55;10.30;73.80
38223;DHT22;24024;51.186;6.458;2023-12-20T14:55:22;10.20;74.00
38223;DHT22;24024;51.186;6.458;2023-12-20T14:57:52;10.40;73.90
38223;DHT22;24024;51.186;6.458;2023-12-20T15:00:21;10.30;74.00
38223;DHT22;24024;51.186;6.458;2023-12-20T15:02:52;10.30;74.10
38223;DHT22;24024;51.186;6.458;2023-12-20T15:05:22;10.30;74.10
38223;DHT22;24024;51.186;6.458;2023-12-20T15:07:51;10.40;74.10
38223;DHT22;24024;51.186;6.458;2023-12-20T15:10:19;10.30;73.90
38223;DHT22;24024;51.186;6.458;2023-12-20T15:12:46;10.30;73.90
38223;DHT22;24024;51.186;6.458;2023-12-20T15:15:15;10.40;74.00
38223;DHT22;24024;51.186;6.458;2023-12-20T15:17:42;10.50;73.80
38223;DHT22;24024;51.186;6.458;2023-12-20T15:20:09;10.40;73.70
38223;DHT22;24024;51.186;6.458;2023-12-20T15:22:41;10.40;73.60
38223;DHT22;24024;51.186;6.458;2023-12-20T15:25:12;10.30;73.70
38223;DHT22;24024;51.186;6.458;2023-12-20T15:27:46;10.30;73.90
38223;DHT22;24024;51.186;6.458;2023-12-20T15:30:15;10.30;73.70
38223;DHT22;24024;51.186;6.458;2023-12-20T15:32:45;10.30;73.70
38223;DHT22;24024;51.186;6.458;2023-12-20T15:35:11;10.40;73.70
38223;DHT22;24024;51.186;6.458;2023-12-20T15:37:41;10.40;73.60
38223;DHT22;24024;51.186;6.458;2023-12-20T15:40:09;10.40;73.60
38223;DHT22;24024;51.186;6.458;2023-12-20T15:42:38;10.30;73.80
38223;DHT22;24024;51.186;6.458;2023-12-20T15:45:06;10.30;73.70
38223;DHT22;24024;51.186;6.458;2023-12-20T15:47:36;10.40;73.50
38223;DHT22;24024;51.186;6.458;2023-12-20T15:50:03;10.40;73.50
38223;DHT22;24024;51.186;6.458;2023-12-20T15:52:33;10.50;73.30
38223;DHT22;24024;51.186;6.458;2023-12-20T15:55:00;10.50;73.00